This is the latest recevied weather packets stored in our database for station/object N4DWK. If no packets are shown the sender has not sent any weather packets the latest 10 day(s).
| Time | Temp. | Humidity | Pressure | Rain* | Wind** | Luminosity | Snow |
|---|---|---|---|---|---|---|---|
| 1778038504 | 21.67° C | 62% | 1012.7 hPa | 0 mm | - | 0 W/m² | - |
| 1778038204 | 21.67° C | 62% | 1012.8 hPa | 0 mm | - | 0 W/m² | - |
| 1778037905 | 22.22° C | 62% | 1012.9 hPa | 0 mm | - | 0 W/m² | - |
| 1778037605 | 22.22° C | 61% | 1012.8 hPa | 0 mm | - | 0 W/m² | - |
| 1778037304 | 22.22° C | 61% | 1012.7 hPa | 0 mm | - | 0 W/m² | - |
| 1778037005 | 22.22° C | 61% | 1012.7 hPa | 0 mm | - | 0 W/m² | - |
| 1778036705 | 22.22° C | 61% | 1012.7 hPa | 0 mm | - | 0 W/m² | - |
| 1778036404 | 22.22° C | 60% | 1012.7 hPa | 0 mm | - | 0 W/m² | - |
| 1778036105 | 22.22° C | 60% | 1012.6 hPa | 0 mm | - | 0 W/m² | - |
| 1778035805 | 22.22° C | 60% | 1012.7 hPa | 0 mm | - | 0 W/m² | - |
| 1778035504 | 22.22° C | 60% | 1012.8 hPa | 0 mm | - | 0 W/m² | - |
| 1778035204 | 22.22° C | 59% | 1012.8 hPa | 0 mm | - | 0 W/m² | - |
| 1778034904 | 22.78° C | 59% | 1012.8 hPa | 0 mm | - | 0 W/m² | - |
| 1778034604 | 22.78° C | 59% | 1012.7 hPa | 0 mm | - | 0 W/m² | - |
| 1778034304 | 22.78° C | 58% | 1012.7 hPa | 0 mm | - | 0 W/m² | - |
| 1778034004 | 22.78° C | 58% | 1012.7 hPa | 0 mm | - | 0 W/m² | - |
| 1778033704 | 22.78° C | 58% | 1012.8 hPa | 0 mm | - | 0 W/m² | - |
| 1778033405 | 22.78° C | 58% | 1012.7 hPa | 0 mm | - | 0 W/m² | - |
| 1778033104 | 22.78° C | 58% | 1012.7 hPa | 0 mm | - | 0 W/m² | - |
| 1778032505 | 22.78° C | 57% | 1012.6 hPa | 0 mm | - | 0 W/m² | - |
| 1778029206 | 23.89° C | 54% | 1012.2 hPa | 0 mm | - | 0 W/m² | - |
| 1778027704 | 24.44° C | 52% | 1011.9 hPa | 0 mm | - | 0 W/m² | - |
| 1778024704 | 25.56° C | 48% | 1011.6 hPa | 0 mm | - | 14 W/m² | - |
| 1778019304 | 27.78° C | 41% | 1011.5 hPa | 0 mm | - | 67 W/m² | - |
| 1778015704 | 28.33° C | 36% | 1011.4 hPa | 0 mm | - | 125 W/m² | - |
* Rain latest hour (hover to see other rain measurements)
** Current wind speed in m/s (hover to see current wind gust speed)